sensor_id;sensor_type;location;lat;lon;timestamp;temperature;humidity
52495;DHT22;38405;53.212;5.660;2022-09-09T00:02:20;13.00;99.90
52495;DHT22;38405;53.212;5.660;2022-09-09T00:07:55;13.00;99.90
52495;DHT22;38405;53.212;5.660;2022-09-09T00:10:39;13.10;99.90
52495;DHT22;38405;53.212;5.660;2022-09-09T00:15:40;13.10;99.90
52495;DHT22;38405;53.212;5.660;2022-09-09T00:21:01;13.20;99.90
52495;DHT22;38405;53.212;5.660;2022-09-09T00:23:31;13.20;99.90
52495;DHT22;38405;53.212;5.660;2022-09-09T00:26:14;13.10;99.90
52495;DHT22;38405;53.212;5.660;2022-09-09T00:28:52;13.00;99.90
52495;DHT22;38405;53.212;5.660;2022-09-09T00:31:27;13.10;99.90
52495;DHT22;38405;53.212;5.660;2022-09-09T00:33:53;13.10;99.90
52495;DHT22;38405;53.212;5.660;2022-09-09T00:36:23;13.10;99.90
52495;DHT22;38405;53.212;5.660;2022-09-09T00:38:59;13.20;99.90
52495;DHT22;38405;53.212;5.660;2022-09-09T00:55:15;13.00;99.90
52495;DHT22;38405;53.212;5.660;2022-09-09T00:57:41;13.00;99.90
52495;DHT22;38405;53.212;5.660;2022-09-09T01:00:18;13.10;99.90
52495;DHT22;38405;53.212;5.660;2022-09-09T01:05:30;13.00;99.90
52495;DHT22;38405;53.212;5.660;2022-09-09T01:08:01;12.90;99.90
52495;DHT22;38405;53.212;5.660;2022-09-09T01:13:34;12.90;99.90
52495;DHT22;38405;53.212;5.660;2022-09-09T01:16:06;13.00;99.90
52495;DHT22;38405;53.212;5.660;2022-09-09T01:18:37;13.10;99.90
52495;DHT22;38405;53.212;5.660;2022-09-09T01:26:39;13.50;99.90
52495;DHT22;38405;53.212;5.660;2022-09-09T01:29:12;13.50;99.90
52495;DHT22;38405;53.212;5.660;2022-09-09T01:31:41;13.50;99.90
52495;DHT22;38405;53.212;5.660;2022-09-09T01:34:15;13.50;99.90
52495;DHT22;38405;53.212;5.660;2022-09-09T01:37:10;13.50;99.90
52495;DHT22;38405;53.212;5.660;2022-09-09T01:39:38;13.40;99.90
52495;DHT22;38405;53.212;5.660;2022-09-09T01:42:06;13.30;99.90
52495;DHT22;38405;53.212;5.660;2022-09-09T01:44:34;13.30;99.90
52495;DHT22;38405;53.212;5.660;2022-09-09T01:47:00;13.30;99.90
52495;DHT22;38405;53.212;5.660;2022-09-09T01:49:25;13.30;99.90
52495;DHT22;38405;53.212;5.660;2022-09-09T01:51:53;13.20;99.90
52495;DHT22;38405;53.212;5.660;2022-09-09T01:54:21;13.20;99.90
52495;DHT22;38405;53.212;5.660;2022-09-09T01:57:11;13.10;99.90
52495;DHT22;38405;53.212;5.660;2022-09-09T02:02:16;13.10;99.90
52495;DHT22;38405;53.212;5.660;2022-09-09T02:07:42;13.10;99.90
52495;DHT22;38405;53.212;5.660;2022-09-09T02:10:19;13.10;99.90
52495;DHT22;38405;53.212;5.660;2022-09-09T02:12:50;13.00;99.90
52495;DHT22;38405;53.212;5.660;2022-09-09T02:15:26;13.00;99.90
52495;DHT22;38405;53.212;5.660;2022-09-09T02:17:57;12.90;99.90
52495;DHT22;38405;53.212;5.660;2022-09-09T02:20:24;12.80;99.90
52495;DHT22;38405;53.212;5.660;2022-09-09T02:22:53;12.80;99.90
52495;DHT22;38405;53.212;5.660;2022-09-09T02:25:23;12.80;99.90
52495;DHT22;38405;53.212;5.660;2022-09-09T02:27:50;12.80;99.90
52495;DHT22;38405;53.212;5.660;2022-09-09T02:30:17;12.70;99.90
52495;DHT22;38405;53.212;5.660;2022-09-09T02:32:44;12.70;99.90
52495;DHT22;38405;53.212;5.660;2022-09-09T02:35:14;12.90;99.90
52495;DHT22;38405;53.212;5.660;2022-09-09T02:37:41;12.70;99.90
52495;DHT22;38405;53.212;5.660;2022-09-09T02:40:10;12.70;99.90
52495;DHT22;38405;53.212;5.660;2022-09-09T02:42:40;12.70;99.90
52495;DHT22;38405;53.212;5.660;2022-09-09T02:45:07;12.70;99.90
52495;DHT22;38405;53.212;5.660;2022-09-09T02:50:22;12.70;99.90
52495;DHT22;38405;53.212;5.660;2022-09-09T02:55:43;12.70;99.90
52495;DHT22;38405;53.212;5.660;2022-09-09T02:58:14;12.70;99.90
52495;DHT22;38405;53.212;5.660;2022-09-09T03:00:43;12.70;99.90
52495;DHT22;38405;53.212;5.660;2022-09-09T03:03:10;12.80;99.90
52495;DHT22;38405;53.212;5.660;2022-09-09T03:05:36;12.70;99.90
52495;DHT22;38405;53.212;5.660;2022-09-09T03:08:03;12.70;99.90
52495;DHT22;38405;53.212;5.660;2022-09-09T03:10:29;12.60;99.90
52495;DHT22;38405;53.212;5.660;2022-09-09T03:12:54;12.70;99.90
52495;DHT22;38405;53.212;5.660;2022-09-09T03:15:21;12.70;99.90
52495;DHT22;38405;53.212;5.660;2022-09-09T03:17:47;12.70;99.90
52495;DHT22;38405;53.212;5.660;2022-09-09T03:20:12;12.70;99.90
52495;DHT22;38405;53.212;5.660;2022-09-09T03:22:38;12.80;99.90
52495;DHT22;38405;53.212;5.660;2022-09-09T03:25:04;12.80;99.90
52495;DHT22;38405;53.212;5.660;2022-09-09T03:27:31;12.90;99.90
52495;DHT22;38405;53.212;5.660;2022-09-09T03:29:57;13.00;99.90
52495;DHT22;38405;53.212;5.660;2022-09-09T03:32:23;13.10;99.90
52495;DHT22;38405;53.212;5.660;2022-09-09T03:34:51;13.20;99.90
52495;DHT22;38405;53.212;5.660;2022-09-09T03:37:17;13.30;99.90
52495;DHT22;38405;53.212;5.660;2022-09-09T03:39:43;13.30;99.90
52495;DHT22;38405;53.212;5.660;2022-09-09T03:42:09;13.40;99.90
52495;DHT22;38405;53.212;5.660;2022-09-09T03:44:37;13.50;99.90
52495;DHT22;38405;53.212;5.660;2022-09-09T03:47:03;13.50;99.90
52495;DHT22;38405;53.212;5.660;2022-09-09T03:49:29;13.60;99.90
52495;DHT22;38405;53.212;5.660;2022-09-09T03:51:56;13.70;99.90
52495;DHT22;38405;53.212;5.660;2022-09-09T03:54:23;13.80;99.90
52495;DHT22;38405;53.212;5.660;2022-09-09T03:56:49;13.80;99.90
52495;DHT22;38405;53.212;5.660;2022-09-09T03:59:15;13.90;99.90
52495;DHT22;38405;53.212;5.660;2022-09-09T04:01:40;13.90;99.90
52495;DHT22;38405;53.212;5.660;2022-09-09T04:04:06;13.90;99.90
52495;DHT22;38405;53.212;5.660;2022-09-09T04:06:33;13.90;99.90
52495;DHT22;38405;53.212;5.660;2022-09-09T04:08:58;14.00;99.90
52495;DHT22;38405;53.212;5.660;2022-09-09T04:11:24;13.90;99.90
52495;DHT22;38405;53.212;5.660;2022-09-09T04:13:49;13.90;99.90
52495;DHT22;38405;53.212;5.660;2022-09-09T04:16:16;13.80;99.90
52495;DHT22;38405;53.212;5.660;2022-09-09T04:18:41;13.80;99.90
52495;DHT22;38405;53.212;5.660;2022-09-09T04:21:09;13.80;99.90
52495;DHT22;38405;53.212;5.660;2022-09-09T04:23:35;13.80;99.90
52495;DHT22;38405;53.212;5.660;2022-09-09T04:26:02;13.70;99.90
52495;DHT22;38405;53.212;5.660;2022-09-09T04:28:31;13.80;99.90
52495;DHT22;38405;53.212;5.660;2022-09-09T04:30:58;13.70;99.90
52495;DHT22;38405;53.212;5.660;2022-09-09T04:33:28;13.70;99.90
52495;DHT22;38405;53.212;5.660;2022-09-09T04:35:55;13.60;99.90
52495;DHT22;38405;53.212;5.660;2022-09-09T04:38:20;13.60;99.90
52495;DHT22;38405;53.212;5.660;2022-09-09T04:40:49;13.60;99.90
52495;DHT22;38405;53.212;5.660;2022-09-09T04:43:17;13.60;99.90
52495;DHT22;38405;53.212;5.660;2022-09-09T04:45:47;13.70;99.90
52495;DHT22;38405;53.212;5.660;2022-09-09T04:48:13;13.60;99.90
52495;DHT22;38405;53.212;5.660;2022-09-09T04:50:39;13.50;99.90
52495;DHT22;38405;53.212;5.660;2022-09-09T04:53:06;13.50;99.90
52495;DHT22;38405;53.212;5.660;2022-09-09T04:55:32;13.50;99.90
52495;DHT22;38405;53.212;5.660;2022-09-09T04:58:06;13.50;99.90
52495;DHT22;38405;53.212;5.660;2022-09-09T05:00:36;13.50;99.90
52495;DHT22;38405;53.212;5.660;2022-09-09T05:03:03;13.60;99.90
52495;DHT22;38405;53.212;5.660;2022-09-09T05:05:30;13.60;99.90
52495;DHT22;38405;53.212;5.660;2022-09-09T05:08:04;13.60;99.90
52495;DHT22;38405;53.212;5.660;2022-09-09T05:10:30;13.60;99.90
52495;DHT22;38405;53.212;5.660;2022-09-09T05:12:56;13.70;99.90
52495;DHT22;38405;53.212;5.660;2022-09-09T05:15:22;13.60;99.90
52495;DHT22;38405;53.212;5.660;2022-09-09T05:17:47;13.60;99.90
52495;DHT22;38405;53.212;5.660;2022-09-09T05:20:13;13.60;99.90
52495;DHT22;38405;53.212;5.660;2022-09-09T05:22:38;13.50;99.90
52495;DHT22;38405;53.212;5.660;2022-09-09T05:25:04;13.50;99.90
52495;DHT22;38405;53.212;5.660;2022-09-09T05:27:30;13.40;99.90
52495;DHT22;38405;53.212;5.660;2022-09-09T05:29:58;13.40;99.90
52495;DHT22;38405;53.212;5.660;2022-09-09T05:32:23;13.40;99.90
52495;DHT22;38405;53.212;5.660;2022-09-09T05:34:49;13.50;99.90
52495;DHT22;38405;53.212;5.660;2022-09-09T05:37:15;13.40;99.90
52495;DHT22;38405;53.212;5.660;2022-09-09T05:39:42;13.50;99.90
52495;DHT22;38405;53.212;5.660;2022-09-09T05:42:07;13.50;99.90
52495;DHT22;38405;53.212;5.660;2022-09-09T05:44:33;13.60;99.90
52495;DHT22;38405;53.212;5.660;2022-09-09T05:46:59;13.70;99.90
52495;DHT22;38405;53.212;5.660;2022-09-09T05:49:24;13.70;99.90
52495;DHT22;38405;53.212;5.660;2022-09-09T05:51:50;13.70;99.90
52495;DHT22;38405;53.212;5.660;2022-09-09T05:54:16;13.90;99.90
52495;DHT22;38405;53.212;5.660;2022-09-09T05:56:42;13.90;99.90
52495;DHT22;38405;53.212;5.660;2022-09-09T05:59:08;13.90;99.90
52495;DHT22;38405;53.212;5.660;2022-09-09T06:01:36;14.00;99.90
52495;DHT22;38405;53.212;5.660;2022-09-09T06:04:06;14.10;99.90
52495;DHT22;38405;53.212;5.660;2022-09-09T06:06:34;14.10;99.90
52495;DHT22;38405;53.212;5.660;2022-09-09T06:09:06;14.20;99.90
52495;DHT22;38405;53.212;5.660;2022-09-09T06:11:36;14.30;99.90
52495;DHT22;38405;53.212;5.660;2022-09-09T06:14:03;14.30;99.90
52495;DHT22;38405;53.212;5.660;2022-09-09T06:16:29;14.50;99.90
52495;DHT22;38405;53.212;5.660;2022-09-09T06:18:56;14.50;99.90
52495;DHT22;38405;53.212;5.660;2022-09-09T06:21:31;14.60;99.90
52495;DHT22;38405;53.212;5.660;2022-09-09T06:23:59;14.60;99.90
52495;DHT22;38405;53.212;5.660;2022-09-09T06:26:33;14.70;99.90
52495;DHT22;38405;53.212;5.660;2022-09-09T06:29:00;14.70;99.90
52495;DHT22;38405;53.212;5.660;2022-09-09T06:31:27;14.70;99.90
52495;DHT22;38405;53.212;5.660;2022-09-09T06:33:56;14.70;99.90
52495;DHT22;38405;53.212;5.660;2022-09-09T06:36:25;14.70;99.90
52495;DHT22;38405;53.212;5.660;2022-09-09T06:38:51;14.70;99.90
52495;DHT22;38405;53.212;5.660;2022-09-09T06:41:18;14.70;99.90
52495;DHT22;38405;53.212;5.660;2022-09-09T06:43:45;14.70;99.90
52495;DHT22;38405;53.212;5.660;2022-09-09T06:46:16;14.80;99.90
52495;DHT22;38405;53.212;5.660;2022-09-09T06:48:43;14.80;99.90
52495;DHT22;38405;53.212;5.660;2022-09-09T06:51:18;14.80;99.90
52495;DHT22;38405;53.212;5.660;2022-09-09T06:53:45;14.90;99.90
52495;DHT22;38405;53.212;5.660;2022-09-09T06:58:37;14.90;99.90
52495;DHT22;38405;53.212;5.660;2022-09-09T07:01:06;15.00;99.90
52495;DHT22;38405;53.212;5.660;2022-09-09T07:03:32;15.10;99.90
52495;DHT22;38405;53.212;5.660;2022-09-09T07:05:59;15.10;99.90
52495;DHT22;38405;53.212;5.660;2022-09-09T07:08:25;15.10;99.90
52495;DHT22;38405;53.212;5.660;2022-09-09T07:10:52;15.20;99.90
52495;DHT22;38405;53.212;5.660;2022-09-09T07:13:24;15.30;99.90
52495;DHT22;38405;53.212;5.660;2022-09-09T07:15:51;15.50;99.90
52495;DHT22;38405;53.212;5.660;2022-09-09T07:18:17;15.60;99.90
52495;DHT22;38405;53.212;5.660;2022-09-09T07:20:44;15.60;99.90
52495;DHT22;38405;53.212;5.660;2022-09-09T07:23:17;15.70;99.90
52495;DHT22;38405;53.212;5.660;2022-09-09T07:25:46;15.70;99.90
52495;DHT22;38405;53.212;5.660;2022-09-09T07:28:13;15.80;99.90
52495;DHT22;38405;53.212;5.660;2022-09-09T07:30:39;16.10;99.90
52495;DHT22;38405;53.212;5.660;2022-09-09T07:33:05;16.50;99.90
52495;DHT22;38405;53.212;5.660;2022-09-09T07:35:31;16.60;99.90
52495;DHT22;38405;53.212;5.660;2022-09-09T07:37:57;16.90;99.90
52495;DHT22;38405;53.212;5.660;2022-09-09T07:40:23;17.40;99.90
52495;DHT22;38405;53.212;5.660;2022-09-09T07:42:49;18.20;99.90
52495;DHT22;38405;53.212;5.660;2022-09-09T07:45:14;18.80;99.90
52495;DHT22;38405;53.212;5.660;2022-09-09T07:47:40;19.00;99.90
52495;DHT22;38405;53.212;5.660;2022-09-09T07:50:08;18.80;99.90
52495;DHT22;38405;53.212;5.660;2022-09-09T07:52:35;18.80;99.90
52495;DHT22;38405;53.212;5.660;2022-09-09T07:55:01;19.20;99.90
52495;DHT22;38405;53.212;5.660;2022-09-09T07:57:28;20.10;99.90
52495;DHT22;38405;53.212;5.660;2022-09-09T07:59:56;20.20;99.90
52495;DHT22;38405;53.212;5.660;2022-09-09T08:02:23;20.60;99.90
52495;DHT22;38405;53.212;5.660;2022-09-09T08:04:49;21.30;99.90
52495;DHT22;38405;53.212;5.660;2022-09-09T08:07:15;20.90;99.90
52495;DHT22;38405;53.212;5.660;2022-09-09T08:09:42;20.50;99.90
52495;DHT22;38405;53.212;5.660;2022-09-09T08:12:07;20.10;99.90
52495;DHT22;38405;53.212;5.660;2022-09-09T08:14:34;20.10;99.90
52495;DHT22;38405;53.212;5.660;2022-09-09T08:17:00;20.30;99.90
52495;DHT22;38405;53.212;5.660;2022-09-09T08:19:25;20.20;99.90
52495;DHT22;38405;53.212;5.660;2022-09-09T08:21:51;19.80;99.90
52495;DHT22;38405;53.212;5.660;2022-09-09T08:24:17;19.50;99.90
52495;DHT22;38405;53.212;5.660;2022-09-09T08:26:47;19.10;99.90
52495;DHT22;38405;53.212;5.660;2022-09-09T08:29:15;18.60;99.90
52495;DHT22;38405;53.212;5.660;2022-09-09T08:31:42;18.80;99.90
52495;DHT22;38405;53.212;5.660;2022-09-09T08:34:08;20.00;99.90
52495;DHT22;38405;53.212;5.660;2022-09-09T08:36:42;20.40;99.90
52495;DHT22;38405;53.212;5.660;2022-09-09T08:39:09;20.50;99.90
52495;DHT22;38405;53.212;5.660;2022-09-09T08:58:05;19.40;99.90
52495;DHT22;38405;53.212;5.660;2022-09-09T09:01:09;18.90;99.90
52495;DHT22;38405;53.212;5.660;2022-09-09T09:09:25;18.30;99.90
52495;DHT22;38405;53.212;5.660;2022-09-09T09:11:56;18.20;99.90
52495;DHT22;38405;53.212;5.660;2022-09-09T09:14:28;18.10;99.90
52495;DHT22;38405;53.212;5.660;2022-09-09T09:17:04;17.90;99.90
52495;DHT22;38405;53.212;5.660;2022-09-09T09:19:32;17.70;99.90
52495;DHT22;38405;53.212;5.660;2022-09-09T09:27:31;17.80;99.90
52495;DHT22;38405;53.212;5.660;2022-09-09T09:29:59;18.10;99.90
52495;DHT22;38405;53.212;5.660;2022-09-09T09:32:28;18.50;99.90
52495;DHT22;38405;53.212;5.660;2022-09-09T09:34:56;18.70;99.90
52495;DHT22;38405;53.212;5.660;2022-09-09T09:37:31;18.80;99.90
52495;DHT22;38405;53.212;5.660;2022-09-09T09:40:17;18.70;99.90
52495;DHT22;38405;53.212;5.660;2022-09-09T09:42:58;18.70;99.90
52495;DHT22;38405;53.212;5.660;2022-09-09T09:45:41;18.60;99.90
52495;DHT22;38405;53.212;5.660;2022-09-09T09:48:10;18.70;99.90
52495;DHT22;38405;53.212;5.660;2022-09-09T09:50:48;18.90;99.90
52495;DHT22;38405;53.212;5.660;2022-09-09T09:53:28;18.90;99.90
52495;DHT22;38405;53.212;5.660;2022-09-09T09:56:05;19.10;99.90
52495;DHT22;38405;53.212;5.660;2022-09-09T10:01:30;19.20;99.90
52495;DHT22;38405;53.212;5.660;2022-09-09T10:04:16;19.20;99.90
52495;DHT22;38405;53.212;5.660;2022-09-09T10:06:42;19.50;99.90
52495;DHT22;38405;53.212;5.660;2022-09-09T10:09:27;19.90;99.90
52495;DHT22;38405;53.212;5.660;2022-09-09T10:12:09;20.00;99.90
52495;DHT22;38405;53.212;5.660;2022-09-09T10:19:37;20.20;99.90
52495;DHT22;38405;53.212;5.660;2022-09-09T10:22:31;20.50;99.90
52495;DHT22;38405;53.212;5.660;2022-09-09T10:30:56;20.30;99.90
52495;DHT22;38405;53.212;5.660;2022-09-09T10:33:41;20.90;99.90
52495;DHT22;38405;53.212;5.660;2022-09-09T10:44:29;20.80;99.90
52495;DHT22;38405;53.212;5.660;2022-09-09T10:47:24;20.70;99.90
52495;DHT22;38405;53.212;5.660;2022-09-09T10:50:18;20.40;99.90
52495;DHT22;38405;53.212;5.660;2022-09-09T10:53:08;20.50;99.90
52495;DHT22;38405;53.212;5.660;2022-09-09T10:55:42;20.50;99.90
52495;DHT22;38405;53.212;5.660;2022-09-09T10:58:14;20.40;99.90
52495;DHT22;38405;53.212;5.660;2022-09-09T11:00:47;20.60;99.90
52495;DHT22;38405;53.212;5.660;2022-09-09T11:03:20;21.00;99.90
52495;DHT22;38405;53.212;5.660;2022-09-09T11:05:51;20.80;99.90
52495;DHT22;38405;53.212;5.660;2022-09-09T11:08:21;20.60;99.90
52495;DHT22;38405;53.212;5.660;2022-09-09T11:11:03;20.30;99.90
52495;DHT22;38405;53.212;5.660;2022-09-09T11:16:56;19.90;99.90
52495;DHT22;38405;53.212;5.660;2022-09-09T11:33:01;18.70;99.90
52495;DHT22;38405;53.212;5.660;2022-09-09T11:38:29;18.80;99.90
52495;DHT22;38405;53.212;5.660;2022-09-09T11:40:59;19.30;99.90
52495;DHT22;38405;53.212;5.660;2022-09-09T11:43:31;19.70;99.90
52495;DHT22;38405;53.212;5.660;2022-09-09T11:46:00;19.90;99.90
52495;DHT22;38405;53.212;5.660;2022-09-09T11:48:40;19.90;99.90
52495;DHT22;38405;53.212;5.660;2022-09-09T11:51:27;20.10;99.90
52495;DHT22;38405;53.212;5.660;2022-09-09T11:56:30;20.20;99.90
52495;DHT22;38405;53.212;5.660;2022-09-09T11:59:00;20.10;99.90
52495;DHT22;38405;53.212;5.660;2022-09-09T12:04:26;19.90;99.90
52495;DHT22;38405;53.212;5.660;2022-09-09T12:07:01;19.90;99.90
52495;DHT22;38405;53.212;5.660;2022-09-09T12:09:48;19.80;99.90
52495;DHT22;38405;53.212;5.660;2022-09-09T12:19:41;19.50;99.90
52495;DHT22;38405;53.212;5.660;2022-09-09T12:24:54;19.20;99.90
52495;DHT22;38405;53.212;5.660;2022-09-09T12:27:34;19.10;99.90
52495;DHT22;38405;53.212;5.660;2022-09-09T12:30:16;19.00;99.90
52495;DHT22;38405;53.212;5.660;2022-09-09T12:32:42;19.10;99.90
52495;DHT22;38405;53.212;5.660;2022-09-09T12:35:11;19.30;99.90
52495;DHT22;38405;53.212;5.660;2022-09-09T12:38:00;19.60;99.90
52495;DHT22;38405;53.212;5.660;2022-09-09T12:40:31;19.80;99.90
52495;DHT22;38405;53.212;5.660;2022-09-09T12:42:57;19.70;99.90
52495;DHT22;38405;53.212;5.660;2022-09-09T12:45:27;19.60;99.90
52495;DHT22;38405;53.212;5.660;2022-09-09T12:47:57;19.70;99.90
52495;DHT22;38405;53.212;5.660;2022-09-09T12:50:50;19.60;99.90
52495;DHT22;38405;53.212;5.660;2022-09-09T12:53:30;19.70;99.90
52495;DHT22;38405;53.212;5.660;2022-09-09T12:55:59;19.70;99.90
52495;DHT22;38405;53.212;5.660;2022-09-09T12:58:26;19.80;99.90
52495;DHT22;38405;53.212;5.660;2022-09-09T13:00:55;19.90;99.90
52495;DHT22;38405;53.212;5.660;2022-09-09T13:03:22;20.10;99.90
52495;DHT22;38405;53.212;5.660;2022-09-09T13:05:48;20.20;99.90
52495;DHT22;38405;53.212;5.660;2022-09-09T13:08:15;20.10;99.90
52495;DHT22;38405;53.212;5.660;2022-09-09T13:10:59;19.90;99.90
52495;DHT22;38405;53.212;5.660;2022-09-09T13:13:40;19.90;99.90
52495;DHT22;38405;53.212;5.660;2022-09-09T13:16:18;19.80;99.90
52495;DHT22;38405;53.212;5.660;2022-09-09T13:18:44;19.70;99.90
52495;DHT22;38405;53.212;5.660;2022-09-09T13:21:10;19.60;99.90
52495;DHT22;38405;53.212;5.660;2022-09-09T13:23:37;19.50;99.90
52495;DHT22;38405;53.212;5.660;2022-09-09T13:26:25;19.40;99.90
52495;DHT22;38405;53.212;5.660;2022-09-09T13:28:54;19.40;99.90
52495;DHT22;38405;53.212;5.660;2022-09-09T13:31:24;19.30;99.90
52495;DHT22;38405;53.212;5.660;2022-09-09T13:33:53;19.20;99.90
52495;DHT22;38405;53.212;5.660;2022-09-09T13:36:29;19.10;99.90
52495;DHT22;38405;53.212;5.660;2022-09-09T13:38:57;19.20;99.90
52495;DHT22;38405;53.212;5.660;2022-09-09T13:41:35;19.30;99.90
52495;DHT22;38405;53.212;5.660;2022-09-09T13:44:02;19.30;99.90
52495;DHT22;38405;53.212;5.660;2022-09-09T13:46:36;19.40;99.90
52495;DHT22;38405;53.212;5.660;2022-09-09T13:51:43;18.80;99.90
52495;DHT22;38405;53.212;5.660;2022-09-09T13:54:12;18.50;99.90
52495;DHT22;38405;53.212;5.660;2022-09-09T13:56:39;18.50;99.90
52495;DHT22;38405;53.212;5.660;2022-09-09T13:59:08;18.60;99.90
52495;DHT22;38405;53.212;5.660;2022-09-09T14:01:34;18.80;99.90
52495;DHT22;38405;53.212;5.660;2022-09-09T14:04:00;18.90;99.90
52495;DHT22;38405;53.212;5.660;2022-09-09T14:06:26;19.00;99.90
52495;DHT22;38405;53.212;5.660;2022-09-09T14:08:53;19.10;99.90
52495;DHT22;38405;53.212;5.660;2022-09-09T14:11:20;19.20;99.90
52495;DHT22;38405;53.212;5.660;2022-09-09T14:13:47;19.20;99.90
52495;DHT22;38405;53.212;5.660;2022-09-09T14:16:13;19.10;99.90
52495;DHT22;38405;53.212;5.660;2022-09-09T14:18:39;19.10;99.90
52495;DHT22;38405;53.212;5.660;2022-09-09T14:21:04;19.10;99.90
52495;DHT22;38405;53.212;5.660;2022-09-09T14:23:30;19.00;99.90
52495;DHT22;38405;53.212;5.660;2022-09-09T14:25:57;19.00;99.90
52495;DHT22;38405;53.212;5.660;2022-09-09T14:28:23;18.90;99.90
52495;DHT22;38405;53.212;5.660;2022-09-09T14:30:49;18.80;99.90
52495;DHT22;38405;53.212;5.660;2022-09-09T14:33:15;18.80;99.90
52495;DHT22;38405;53.212;5.660;2022-09-09T14:35:41;18.70;99.90
52495;DHT22;38405;53.212;5.660;2022-09-09T14:38:08;18.60;99.90
52495;DHT22;38405;53.212;5.660;2022-09-09T14:40:35;18.60;99.90
52495;DHT22;38405;53.212;5.660;2022-09-09T14:43:01;18.60;99.90
52495;DHT22;38405;53.212;5.660;2022-09-09T14:45:27;18.50;99.90
52495;DHT22;38405;53.212;5.660;2022-09-09T14:47:54;18.40;99.90
52495;DHT22;38405;53.212;5.660;2022-09-09T14:50:20;18.30;99.90
52495;DHT22;38405;53.212;5.660;2022-09-09T14:52:47;18.20;99.90
52495;DHT22;38405;53.212;5.660;2022-09-09T14:55:12;18.00;99.90
52495;DHT22;38405;53.212;5.660;2022-09-09T14:57:38;17.80;99.90
52495;DHT22;38405;53.212;5.660;2022-09-09T15:00:05;17.70;99.90
52495;DHT22;38405;53.212;5.660;2022-09-09T15:02:32;17.80;99.90
52495;DHT22;38405;53.212;5.660;2022-09-09T15:04:58;17.80;99.90
52495;DHT22;38405;53.212;5.660;2022-09-09T15:07:25;17.90;99.90
52495;DHT22;38405;53.212;5.660;2022-09-09T15:09:50;17.90;99.90
52495;DHT22;38405;53.212;5.660;2022-09-09T15:12:18;18.00;99.90
52495;DHT22;38405;53.212;5.660;2022-09-09T15:14:44;18.20;99.90
52495;DHT22;38405;53.212;5.660;2022-09-09T15:17:11;18.20;99.90
52495;DHT22;38405;53.212;5.660;2022-09-09T15:19:37;18.30;99.90
52495;DHT22;38405;53.212;5.660;2022-09-09T15:22:04;18.30;99.90
52495;DHT22;38405;53.212;5.660;2022-09-09T15:24:33;18.40;99.90
52495;DHT22;38405;53.212;5.660;2022-09-09T15:27:00;18.50;99.90
52495;DHT22;38405;53.212;5.660;2022-09-09T15:29:26;18.60;99.90
52495;DHT22;38405;53.212;5.660;2022-09-09T15:31:53;18.60;99.90
52495;DHT22;38405;53.212;5.660;2022-09-09T15:34:20;18.80;99.90
52495;DHT22;38405;53.212;5.660;2022-09-09T15:36:46;18.80;99.90
52495;DHT22;38405;53.212;5.660;2022-09-09T15:39:14;18.90;99.90
52495;DHT22;38405;53.212;5.660;2022-09-09T15:41:44;18.80;99.90
52495;DHT22;38405;53.212;5.660;2022-09-09T15:44:11;18.90;99.90
52495;DHT22;38405;53.212;5.660;2022-09-09T15:46:49;18.90;99.90
52495;DHT22;38405;53.212;5.660;2022-09-09T15:49:21;18.90;99.90
52495;DHT22;38405;53.212;5.660;2022-09-09T15:51:54;18.90;99.90
52495;DHT22;38405;53.212;5.660;2022-09-09T15:54:22;18.90;99.90
52495;DHT22;38405;53.212;5.660;2022-09-09T15:56:56;18.80;99.90
52495;DHT22;38405;53.212;5.660;2022-09-09T15:59:22;18.80;99.90
52495;DHT22;38405;53.212;5.660;2022-09-09T16:01:49;18.60;99.90
52495;DHT22;38405;53.212;5.660;2022-09-09T16:04:20;18.60;99.90
52495;DHT22;38405;53.212;5.660;2022-09-09T16:06:53;18.50;99.90
52495;DHT22;38405;53.212;5.660;2022-09-09T16:09:19;18.40;99.90
52495;DHT22;38405;53.212;5.660;2022-09-09T16:11:45;18.20;99.90
52495;DHT22;38405;53.212;5.660;2022-09-09T16:14:13;18.10;99.90
52495;DHT22;38405;53.212;5.660;2022-09-09T16:16:40;18.00;99.90
52495;DHT22;38405;53.212;5.660;2022-09-09T16:19:09;17.90;99.90
52495;DHT22;38405;53.212;5.660;2022-09-09T16:21:46;17.80;99.90
52495;DHT22;38405;53.212;5.660;2022-09-09T16:24:15;17.60;99.90
52495;DHT22;38405;53.212;5.660;2022-09-09T16:26:43;17.30;99.90
52495;DHT22;38405;53.212;5.660;2022-09-09T16:29:15;17.10;99.90
52495;DHT22;38405;53.212;5.660;2022-09-09T16:31:43;17.00;99.90
52495;DHT22;38405;53.212;5.660;2022-09-09T16:34:09;16.90;99.90
52495;DHT22;38405;53.212;5.660;2022-09-09T16:36:36;16.80;99.90
52495;DHT22;38405;53.212;5.660;2022-09-09T16:39:06;16.70;99.90
52495;DHT22;38405;53.212;5.660;2022-09-09T16:41:34;16.60;99.90
52495;DHT22;38405;53.212;5.660;2022-09-09T16:44:02;16.60;99.90
52495;DHT22;38405;53.212;5.660;2022-09-09T16:46:30;16.60;99.90
52495;DHT22;38405;53.212;5.660;2022-09-09T16:48:57;16.50;99.90
52495;DHT22;38405;53.212;5.660;2022-09-09T16:51:35;16.50;99.90
52495;DHT22;38405;53.212;5.660;2022-09-09T16:54:03;16.50;99.90
52495;DHT22;38405;53.212;5.660;2022-09-09T16:56:31;16.50;99.90
52495;DHT22;38405;53.212;5.660;2022-09-09T16:59:02;16.60;99.90
52495;DHT22;38405;53.212;5.660;2022-09-09T17:01:30;16.70;99.90
52495;DHT22;38405;53.212;5.660;2022-09-09T17:03:59;16.80;99.90
52495;DHT22;38405;53.212;5.660;2022-09-09T17:06:26;16.90;99.90
52495;DHT22;38405;53.212;5.660;2022-09-09T17:09:00;17.10;99.90
52495;DHT22;38405;53.212;5.660;2022-09-09T17:11:27;17.10;99.90
52495;DHT22;38405;53.212;5.660;2022-09-09T17:13:54;17.10;99.90
52495;DHT22;38405;53.212;5.660;2022-09-09T17:16:21;17.20;99.90
52495;DHT22;38405;53.212;5.660;2022-09-09T17:18:51;17.20;99.90
52495;DHT22;38405;53.212;5.660;2022-09-09T17:21:19;17.20;99.90
52495;DHT22;38405;53.212;5.660;2022-09-09T17:23:46;17.10;99.90
52495;DHT22;38405;53.212;5.660;2022-09-09T17:26:14;17.00;99.90
52495;DHT22;38405;53.212;5.660;2022-09-09T17:28:41;17.00;99.90
52495;DHT22;38405;53.212;5.660;2022-09-09T17:31:09;16.90;99.90
52495;DHT22;38405;53.212;5.660;2022-09-09T17:33:37;16.90;99.90
52495;DHT22;38405;53.212;5.660;2022-09-09T17:38:37;16.80;99.90
52495;DHT22;38405;53.212;5.660;2022-09-09T17:41:07;16.80;99.90
52495;DHT22;38405;53.212;5.660;2022-09-09T17:43:33;16.70;99.90
52495;DHT22;38405;53.212;5.660;2022-09-09T17:46:07;16.70;99.90
52495;DHT22;38405;53.212;5.660;2022-09-09T17:48:33;16.60;99.90
52495;DHT22;38405;53.212;5.660;2022-09-09T17:51:01;16.50;99.90
52495;DHT22;38405;53.212;5.660;2022-09-09T17:53:27;16.50;99.90
52495;DHT22;38405;53.212;5.660;2022-09-09T17:55:53;16.40;99.90
52495;DHT22;38405;53.212;5.660;2022-09-09T17:58:18;16.40;99.90
52495;DHT22;38405;53.212;5.660;2022-09-09T18:00:44;16.30;99.90
52495;DHT22;38405;53.212;5.660;2022-09-09T18:03:10;16.20;99.90